Time;durP1;ratioP1;P1;durP2;ratioP2;P2;SDS_P1;SDS_P2;PMS_P1;PMS_P2;Temp;Humidity;BMP_temperature;BMP_pressure;BME280_temperature;BME280_humidity;BME280_pressure;Samples;Min_cycle;Max_cycle;Signal;HPM_P1;HPM_P2
2023/10/31 00:01:10;;;;;;;13.38;10.82;;;13.60;99.90;;;;;;4981670;28;20241;-83
2023/10/31 00:03:40;;;;;;;15.95;14.25;;;13.60;99.90;;;;;;4981773;28;20246;-82
2023/10/31 00:06:07;;;;;;;17.25;15.07;;;13.60;99.90;;;;;;4984405;28;20226;-83
2023/10/31 00:08:34;;;;;;;20.67;15.13;;;13.60;99.90;;;;;;4986697;28;20241;-82
2023/10/31 00:11:00;;;;;;;15.50;13.85;;;13.50;99.90;;;;;;4990456;28;20230;-83
2023/10/31 00:13:27;;;;;;;27.23;21.85;;;13.50;99.90;;;;;;4990032;28;20206;-83
2023/10/31 00:15:54;;;;;;;20.38;16.85;;;13.50;99.90;;;;;;4985194;28;20277;-83
2023/10/31 00:18:21;;;;;;;24.70;18.45;;;13.50;99.90;;;;;;4988397;28;20222;-82
2023/10/31 00:20:49;;;;;;;18.08;14.90;;;13.50;99.90;;;;;;4994975;28;20231;-83
2023/10/31 00:23:16;;;;;;;14.55;13.05;;;13.40;99.90;;;;;;4987355;28;20186;-81
2023/10/31 00:25:43;;;;;;;26.20;17.92;;;13.50;99.90;;;;;;4985080;28;20226;-82
2023/10/31 00:28:10;;;;;;;22.60;17.48;;;13.70;99.90;;;;;;4988242;28;20230;-83
2023/10/31 00:30:37;;;;;;;22.05;17.05;;;13.50;99.90;;;;;;4984826;28;20203;-84
2023/10/31 00:33:04;;;;;;;27.00;21.23;;;13.60;99.90;;;;;;4985101;28;20207;-83
2023/10/31 00:35:31;;;;;;;28.73;19.98;;;13.50;99.90;;;;;;4979688;28;20250;-83
2023/10/31 00:37:59;;;;;;;26.10;19.45;;;13.50;99.90;;;;;;4979498;28;20219;-82
2023/10/31 00:40:26;;;;;;;21.15;17.75;;;13.50;99.90;;;;;;4984705;28;20233;-82
2023/10/31 00:42:53;;;;;;;17.15;15.20;;;13.50;99.90;;;;;;4976205;28;20250;-82
2023/10/31 00:45:20;;;;;;;31.45;20.48;;;13.60;99.90;;;;;;4983243;28;20226;-82
2023/10/31 00:47:47;;;;;;;14.82;13.10;;;13.50;99.90;;;;;;4989336;28;20702;-82
2023/10/31 00:50:14;;;;;;;22.00;15.75;;;13.50;99.90;;;;;;4976061;28;20310;-82
2023/10/31 00:52:41;;;;;;;19.10;16.17;;;13.60;99.90;;;;;;4995292;28;20225;-82
2023/10/31 00:55:09;;;;;;;25.17;19.13;;;13.60;99.90;;;;;;4979679;28;20234;-82
2023/10/31 00:57:36;;;;;;;21.75;16.25;;;13.60;99.90;;;;;;4971832;28;20233;-82
2023/10/31 01:00:04;;;;;;;16.02;13.73;;;13.70;99.90;;;;;;4974085;28;20206;-82
2023/10/31 01:02:30;;;;;;;20.10;16.58;;;13.60;99.90;;;;;;4983294;28;20210;-81
2023/10/31 01:04:57;;;;;;;22.25;16.80;;;13.60;99.90;;;;;;4983868;28;20773;-84
2023/10/31 01:07:24;;;;;;;26.85;18.45;;;13.60;99.90;;;;;;4985165;28;20257;-84
2023/10/31 01:09:51;;;;;;;24.42;17.13;;;13.60;99.90;;;;;;4985309;28;20218;-82
2023/10/31 01:12:19;;;;;;;27.13;16.98;;;13.50;99.90;;;;;;4979926;28;20254;-82
2023/10/31 01:14:46;;;;;;;16.48;13.70;;;13.60;99.90;;;;;;4976842;28;20219;-83
2023/10/31 01:17:12;;;;;;;16.88;12.80;;;13.60;99.90;;;;;;4977777;28;20276;-82
2023/10/31 01:19:39;;;;;;;21.50;16.42;;;13.60;99.90;;;;;;4984105;28;20282;-82
2023/10/31 01:22:07;;;;;;;19.67;15.95;;;13.60;99.90;;;;;;4986150;28;20333;-83
2023/10/31 01:24:34;;;;;;;17.02;13.63;;;13.50;99.90;;;;;;4982775;28;20242;-84
2023/10/31 01:27:00;;;;;;;18.67;15.40;;;13.60;99.90;;;;;;4980131;28;20219;-83
2023/10/31 01:29:28;;;;;;;14.60;12.32;;;13.60;99.90;;;;;;4970605;28;20215;-82
2023/10/31 01:31:55;;;;;;;19.92;14.85;;;13.70;99.90;;;;;;4977181;28;20273;-83
2023/10/31 01:34:22;;;;;;;13.00;11.57;;;13.60;99.90;;;;;;4986156;28;20250;-83
2023/10/31 01:36:49;;;;;;;17.33;13.75;;;13.60;99.90;;;;;;4984642;28;20667;-83
2023/10/31 01:39:16;;;;;;;20.27;15.23;;;13.60;99.90;;;;;;4979301;28;20343;-82
2023/10/31 01:41:43;;;;;;;15.80;13.05;;;13.50;99.90;;;;;;4973749;28;20659;-82
2023/10/31 01:44:09;;;;;;;16.98;14.15;;;13.50;99.90;;;;;;4982821;28;20294;-82
2023/10/31 01:46:38;;;;;;;20.75;15.38;;;13.50;99.90;;;;;;4978102;28;20286;-82
2023/10/31 01:49:05;;;;;;;15.45;13.50;;;13.50;99.90;;;;;;4979205;28;20270;-82
2023/10/31 01:51:31;;;;;;;13.07;11.65;;;13.50;99.90;;;;;;4983877;28;20274;-82
2023/10/31 01:53:58;;;;;;;15.90;14.25;;;13.60;99.90;;;;;;4990161;28;20248;-83
2023/10/31 01:56:26;;;;;;;13.45;12.05;;;13.50;99.90;;;;;;4974429;28;20274;-82
2023/10/31 01:58:54;;;;;;;19.45;15.50;;;13.60;99.90;;;;;;4971971;28;20278;-82
2023/10/31 02:01:21;;;;;;;19.50;15.43;;;13.60;99.90;;;;;;4973829;28;20234;-82
2023/10/31 02:03:49;;;;;;;20.30;14.65;;;13.50;99.90;;;;;;4978706;28;20263;-84
2023/10/31 02:06:16;;;;;;;20.58;16.27;;;13.50;99.90;;;;;;4976819;28;20267;-83
2023/10/31 02:08:43;;;;;;;15.20;12.82;;;13.60;99.90;;;;;;4986408;28;20211;-83
2023/10/31 02:11:10;;;;;;;21.35;17.27;;;13.50;99.90;;;;;;4984665;28;20234;-83
2023/10/31 02:13:37;;;;;;;13.32;11.93;;;13.50;99.90;;;;;;4976175;28;20207;-83
2023/10/31 02:16:04;;;;;;;22.58;17.10;;;13.50;99.90;;;;;;4984147;28;20226;-82
2023/10/31 02:18:31;;;;;;;17.38;15.43;;;13.50;99.90;;;;;;4978627;28;20291;-82
2023/10/31 02:21:00;;;;;;;20.67;15.65;;;13.60;99.90;;;;;;4994699;28;20241;-82
2023/10/31 02:23:28;;;;;;;27.05;17.13;;;13.60;99.90;;;;;;4978551;28;20242;-82
2023/10/31 02:25:55;;;;;;;15.05;13.15;;;13.60;99.90;;;;;;4995733;28;20230;-81
2023/10/31 02:28:21;;;;;;;19.90;15.63;;;13.60;99.90;;;;;;4992991;28;20239;-81
2023/10/31 02:30:48;;;;;;;20.20;17.73;;;13.60;99.90;;;;;;4993091;28;20257;-81
2023/10/31 02:33:15;;;;;;;18.58;15.55;;;13.60;99.90;;;;;;4989863;28;20190;-81
2023/10/31 02:35:42;;;;;;;21.30;15.90;;;13.60;99.90;;;;;;4994892;28;20269;-82
2023/10/31 02:38:09;;;;;;;18.60;15.95;;;13.60;99.90;;;;;;4980859;28;20213;-80
2023/10/31 02:40:37;;;;;;;27.70;19.50;;;13.70;99.90;;;;;;4983752;28;20232;-83
2023/10/31 02:43:04;;;;;;;19.15;14.57;;;13.60;99.90;;;;;;4989581;28;20221;-82
2023/10/31 02:45:30;;;;;;;29.92;19.48;;;13.60;99.90;;;;;;4984706;28;20246;-80
2023/10/31 02:47:57;;;;;;;25.50;20.48;;;13.50;99.90;;;;;;4979960;28;20250;-82
2023/10/31 02:50:24;;;;;;;23.85;17.75;;;13.50;99.90;;;;;;4980966;28;20194;-82
2023/10/31 02:52:51;;;;;;;19.15;16.33;;;13.50;99.90;;;;;;4990318;28;20258;-82
2023/10/31 02:55:18;;;;;;;30.20;20.55;;;13.50;99.90;;;;;;4986504;28;20233;-82
2023/10/31 02:57:46;;;;;;;26.77;19.45;;;13.50;99.90;;;;;;4994521;28;20198;-82
2023/10/31 03:00:13;;;;;;;20.95;16.65;;;13.50;99.90;;;;;;4996514;28;20218;-82
2023/10/31 03:02:40;;;;;;;25.98;19.67;;;13.50;99.90;;;;;;4980650;28;20282;-82
2023/10/31 03:05:14;;;;;;;22.17;16.92;;;13.60;99.90;;;;;;5015368;23;20238;-77
2023/10/31 03:08:20;;;;;;;25.45;19.55;;;13.60;99.90;;;;;;5025563;28;20202;-78
2023/10/31 03:11:02;;;;;;;23.92;18.52;;;13.70;99.90;;;;;;5029445;28;20192;-79
2023/10/31 03:13:33;;;;;;;26.20;19.92;;;13.60;99.90;;;;;;4988088;28;20236;-80
2023/10/31 03:16:02;;;;;;;25.98;19.60;;;13.60;99.90;;;;;;5015272;28;20257;-79
2023/10/31 03:18:29;;;;;;;21.98;19.58;;;13.60;99.90;;;;;;5003937;28;20236;-78
2023/10/31 03:20:57;;;;;;;30.23;21.67;;;13.70;99.90;;;;;;5014335;28;20205;-79
2023/10/31 03:23:29;;;;;;;26.55;19.17;;;13.80;99.90;;;;;;5022513;28;20210;-78
2023/10/31 03:25:56;;;;;;;29.63;21.55;;;13.70;99.90;;;;;;5007821;28;20211;-78
2023/10/31 03:28:27;;;;;;;29.35;19.58;;;13.70;99.90;;;;;;5006996;28;20225;-79
2023/10/31 03:31:11;;;;;;;24.40;18.55;;;13.70;99.90;;;;;;5001327;28;20210;-80
2023/10/31 03:33:38;;;;;;;28.65;20.83;;;13.70;99.90;;;;;;4989990;28;20211;-80
2023/10/31 03:36:07;;;;;;;24.10;19.25;;;13.80;99.90;;;;;;5004733;28;20229;-79
2023/10/31 03:38:46;;;;;;;30.80;22.15;;;13.80;99.90;;;;;;5001330;28;20202;-80
2023/10/31 03:41:14;;;;;;;28.55;20.67;;;13.80;99.90;;;;;;5002284;28;20233;-79
2023/10/31 03:43:41;;;;;;;37.65;24.40;;;13.80;99.90;;;;;;4995217;28;20217;-80
2023/10/31 03:46:09;;;;;;;40.22;26.40;;;13.80;99.90;;;;;;4995321;28;20221;-79
2023/10/31 03:48:38;;;;;;;31.60;22.17;;;13.80;99.90;;;;;;5000654;28;20227;-79
2023/10/31 03:51:05;;;;;;;31.45;21.75;;;13.80;99.90;;;;;;4992292;28;20246;-80
2023/10/31 03:53:32;;;;;;;26.65;19.95;;;13.80;99.90;;;;;;4995091;28;20231;-79
2023/10/31 03:56:00;;;;;;;32.45;23.35;;;13.80;99.90;;;;;;4998090;28;20221;-80
2023/10/31 03:58:27;;;;;;;31.83;21.08;;;13.80;99.90;;;;;;4994201;28;20197;-79
2023/10/31 04:00:54;;;;;;;30.13;19.40;;;13.80;99.90;;;;;;5001587;28;20289;-80
2023/10/31 04:03:22;;;;;;;24.05;18.30;;;13.90;99.90;;;;;;4991230;28;20229;-79
2023/10/31 04:05:49;;;;;;;22.13;16.73;;;13.80;99.90;;;;;;4995236;28;20226;-80
2023/10/31 04:08:16;;;;;;;30.98;21.40;;;13.80;99.90;;;;;;5003745;28;20229;-80
2023/10/31 04:10:42;;;;;;;20.00;15.98;;;13.80;99.90;;;;;;5004596;28;20296;-80
2023/10/31 04:13:09;;;;;;;21.90;17.98;;;13.80;99.90;;;;;;5005498;28;20297;-81
2023/10/31 04:15:36;;;;;;;28.45;20.75;;;13.80;99.90;;;;;;4996626;28;20229;-80
2023/10/31 04:18:04;;;;;;;24.02;16.88;;;13.80;99.90;;;;;;5004727;28;20209;-79
2023/10/31 04:20:32;;;;;;;15.65;13.45;;;13.90;99.90;;;;;;4996804;28;20211;-79
2023/10/31 04:22:59;;;;;;;21.85;16.92;;;13.90;99.90;;;;;;4996766;28;20274;-82
2023/10/31 04:25:26;;;;;;;19.58;14.63;;;13.90;99.90;;;;;;5001511;28;20235;-79
2023/10/31 04:27:53;;;;;;;15.02;12.40;;;13.90;99.90;;;;;;4996787;28;20225;-79
2023/10/31 04:30:21;;;;;;;20.13;16.30;;;14.00;99.90;;;;;;5015889;28;20237;-79
2023/10/31 04:32:48;;;;;;;20.02;16.13;;;13.90;99.90;;;;;;5015047;28;20202;-79
2023/10/31 04:35:15;;;;;;;24.15;17.98;;;13.90;99.90;;;;;;5015983;28;20261;-80
2023/10/31 04:37:43;;;;;;;18.83;14.40;;;13.90;99.90;;;;;;5012103;28;20201;-80
2023/10/31 04:40:11;;;;;;;17.38;13.50;;;13.90;99.90;;;;;;5013786;28;20201;-80
2023/10/31 04:42:40;;;;;;;19.35;15.15;;;13.80;99.90;;;;;;5013366;28;20206;-79
2023/10/31 04:45:08;;;;;;;18.40;15.10;;;13.90;99.90;;;;;;5004681;28;20213;-81
2023/10/31 04:47:35;;;;;;;18.85;15.02;;;13.80;99.90;;;;;;5013362;28;20221;-81
2023/10/31 04:50:02;;;;;;;24.20;19.27;;;13.80;99.90;;;;;;4989498;28;20219;-78
2023/10/31 04:52:29;;;;;;;20.40;16.23;;;13.80;99.90;;;;;;4988091;28;20198;-79
2023/10/31 04:54:57;;;;;;;28.70;20.02;;;13.80;99.90;;;;;;4994972;28;20206;-80
2023/10/31 04:57:24;;;;;;;24.92;19.27;;;13.80;99.90;;;;;;4999826;28;20199;-79
2023/10/31 04:59:52;;;;;;;26.33;19.65;;;13.80;99.90;;;;;;4984576;28;20348;-80
2023/10/31 05:02:19;;;;;;;34.30;21.25;;;13.70;99.90;;;;;;4993547;28;20229;-79
2023/10/31 05:04:45;;;;;;;30.38;22.05;;;13.50;99.90;;;;;;4988670;28;20234;-79
2023/10/31 05:07:12;;;;;;;26.23;21.02;;;13.40;99.90;;;;;;4995252;28;20244;-79
2023/10/31 05:09:41;;;;;;;23.98;19.75;;;13.30;99.90;;;;;;5001688;28;20630;-79
2023/10/31 05:12:10;;;;;;;25.77;20.77;;;13.30;99.90;;;;;;5004158;28;20213;-79
2023/10/31 05:14:37;;;;;;;27.30;22.50;;;13.30;99.90;;;;;;5008366;28;20201;-79
2023/10/31 05:17:04;;;;;;;27.08;23.13;;;13.20;99.90;;;;;;5003188;28;20249;-80
2023/10/31 05:19:31;;;;;;;22.70;20.30;;;13.20;99.90;;;;;;5007776;28;20261;-79
2023/10/31 05:21:58;;;;;;;23.95;18.40;;;13.10;99.90;;;;;;5002103;28;20206;-79
2023/10/31 05:24:24;;;;;;;20.05;17.27;;;13.10;99.90;;;;;;5010455;28;20320;-78
2023/10/31 05:26:51;;;;;;;19.95;17.83;;;13.00;99.90;;;;;;5009170;28;20231;-79
2023/10/31 05:29:19;;;;;;;19.92;17.80;;;13.00;99.90;;;;;;5005859;28;20249;-79
2023/10/31 05:31:47;;;;;;;22.88;18.38;;;13.00;99.90;;;;;;5000351;28;20237;-78
2023/10/31 05:34:13;;;;;;;20.00;16.48;;;12.90;99.90;;;;;;4994594;28;20209;-79
2023/10/31 05:36:40;;;;;;;24.70;20.05;;;13.00;99.90;;;;;;5000749;28;20289;-79
2023/10/31 05:39:08;;;;;;;19.15;17.00;;;13.00;99.90;;;;;;4996087;28;20201;-79
2023/10/31 05:41:35;;;;;;;20.75;17.17;;;12.80;99.90;;;;;;5000661;28;20232;-79
2023/10/31 05:44:02;;;;;;;20.42;15.20;;;12.70;99.90;;;;;;5001515;28;20248;-79
2023/10/31 05:46:30;;;;;;;22.25;16.00;;;12.60;99.90;;;;;;4998944;28;20245;-79
2023/10/31 05:48:57;;;;;;;13.07;11.65;;;12.50;99.90;;;;;;4999337;28;20288;-79
2023/10/31 05:51:25;;;;;;;9.77;8.35;;;12.40;99.90;;;;;;4996620;28;20237;-79
2023/10/31 05:53:52;;;;;;;8.50;5.65;;;12.40;99.90;;;;;;4990547;28;20287;-79
2023/10/31 05:56:19;;;;;;;5.18;3.35;;;12.20;99.90;;;;;;4994367;28;20239;-78
2023/10/31 05:58:45;;;;;;;2.08;1.88;;;12.20;99.90;;;;;;4984678;28;20215;-79
2023/10/31 06:01:12;;;;;;;2.40;2.20;;;12.00;99.90;;;;;;4992290;28;20216;-79
2023/10/31 06:03:43;;;;;;;2.20;2.00;;;11.90;99.90;;;;;;4992331;28;20292;-79
2023/10/31 06:06:09;;;;;;;1.40;1.30;;;11.80;99.90;;;;;;4993097;28;20233;-79
2023/10/31 06:08:35;;;;;;;1.30;1.10;;;11.80;99.90;;;;;;4988852;28;20311;-80
2023/10/31 06:11:04;;;;;;;3.15;2.60;;;11.70;99.90;;;;;;5003397;28;20818;-80
2023/10/31 06:13:31;;;;;;;9.05;3.47;;;11.70;99.90;;;;;;4995064;28;20299;-79
2023/10/31 06:15:58;;;;;;;5.60;4.22;;;11.70;99.90;;;;;;5004204;28;20243;-79
2023/10/31 06:18:26;;;;;;;2.63;2.10;;;11.70;99.90;;;;;;4993485;28;20220;-80
2023/10/31 06:20:54;;;;;;;2.35;1.92;;;11.50;99.90;;;;;;4989083;28;20212;-79
2023/10/31 06:23:21;;;;;;;1.40;1.30;;;11.40;99.90;;;;;;4993905;28;20232;-79
2023/10/31 06:25:48;;;;;;;2.50;1.35;;;11.40;99.90;;;;;;4991838;28;20239;-80
2023/10/31 06:28:15;;;;;;;1.60;1.50;;;11.40;99.90;;;;;;5002179;28;20281;-79
2023/10/31 06:30:42;;;;;;;2.28;2.00;;;11.30;99.90;;;;;;4998347;28;20246;-79
2023/10/31 06:33:10;;;;;;;1.73;1.63;;;11.30;99.90;;;;;;5004251;28;20302;-80
2023/10/31 06:35:37;;;;;;;2.58;1.75;;;11.20;99.90;;;;;;4993417;28;20235;-81
2023/10/31 06:38:05;;;;;;;2.30;2.10;;;11.30;99.90;;;;;;4993895;28;20295;-79
2023/10/31 06:40:32;;;;;;;1.90;1.80;;;11.20;99.90;;;;;;5008066;28;20217;-79
2023/10/31 06:42:59;;;;;;;3.40;2.45;;;11.20;99.90;;;;;;4997845;28;20218;-80
2023/10/31 06:45:26;;;;;;;1.88;1.75;;;11.20;99.90;;;;;;4996586;28;20247;-79
2023/10/31 06:47:53;;;;;;;2.80;1.73;;;11.20;99.90;;;;;;4994275;28;20234;-79
2023/10/31 06:50:20;;;;;;;4.55;2.05;;;11.20;99.90;;;;;;4996147;28;20288;-79
2023/10/31 06:52:47;;;;;;;2.00;1.20;;;11.20;99.90;;;;;;4994067;28;20222;-78
2023/10/31 06:55:15;;;;;;;1.20;1.10;;;11.20;99.90;;;;;;4995695;28;20582;-78
2023/10/31 06:57:42;;;;;;;6.63;1.50;;;11.20;99.90;;;;;;5013794;28;20278;-79
2023/10/31 07:00:11;;;;;;;4.35;1.42;;;11.20;99.90;;;;;;5004712;28;20226;-78
2023/10/31 07:02:38;;;;;;;1.90;1.40;;;11.10;99.90;;;;;;5007901;28;20218;-78
2023/10/31 07:05:06;;;;;;;3.05;1.55;;;11.20;99.90;;;;;;4993583;28;20211;-79
2023/10/31 07:07:32;;;;;;;1.42;1.10;;;11.20;99.90;;;;;;4994279;28;20240;-79
2023/10/31 07:09:59;;;;;;;1.35;1.15;;;11.20;99.90;;;;;;4995120;28;20310;-80
2023/10/31 07:12:28;;;;;;;2.92;1.25;;;11.20;99.90;;;;;;4993368;28;20624;-80
2023/10/31 07:14:54;;;;;;;1.30;1.00;;;11.40;99.90;;;;;;5010494;28;20215;-80
2023/10/31 07:17:21;;;;;;;3.25;1.65;;;11.50;99.90;;;;;;4997306;28;20226;-80
2023/10/31 07:19:48;;;;;;;3.33;1.20;;;11.50;99.90;;;;;;4990379;28;20423;-80
2023/10/31 07:22:15;;;;;;;1.65;1.00;;;11.60;99.90;;;;;;4995747;28;20216;-79
2023/10/31 07:24:42;;;;;;;2.38;1.17;;;11.60;99.90;;;;;;4989178;28;20215;-79
2023/10/31 07:27:09;;;;;;;1.50;1.30;;;11.70;99.90;;;;;;5007012;28;20670;-80
2023/10/31 07:29:40;;;;;;;1.63;1.05;;;11.70;99.90;;;;;;4992999;28;20662;-79
2023/10/31 07:32:07;;;;;;;2.08;1.40;;;11.70;99.90;;;;;;4996997;28;20208;-79
2023/10/31 07:34:34;;;;;;;4.60;1.33;;;11.70;99.90;;;;;;4991968;28;20273;-78
2023/10/31 07:37:01;;;;;;;3.13;1.60;;;11.70;99.90;;;;;;4993713;28;20223;-79
2023/10/31 07:39:28;;;;;;;2.17;1.48;;;11.60;99.90;;;;;;5000814;28;20308;-79
2023/10/31 07:41:54;;;;;;;1.95;1.80;;;11.70;99.90;;;;;;5003608;28;20240;-79
2023/10/31 07:44:21;;;;;;;1.92;1.40;;;11.70;99.90;;;;;;5011311;28;20223;-79
2023/10/31 07:46:49;;;;;;;1.63;1.10;;;11.60;99.90;;;;;;5002500;28;20293;-79
2023/10/31 07:49:16;;;;;;;2.60;1.10;;;11.60;99.90;;;;;;4991459;28;20222;-81
2023/10/31 07:51:43;;;;;;;1.50;1.00;;;11.60;99.90;;;;;;5002005;28;20211;-80
2023/10/31 07:54:10;;;;;;;4.72;3.22;;;11.60;99.90;;;;;;4994679;28;20214;-80
2023/10/31 07:56:37;;;;;;;1.83;1.20;;;11.60;99.90;;;;;;4996097;28;20250;-80
2023/10/31 07:59:04;;;;;;;3.58;1.70;;;11.60;99.90;;;;;;4996881;28;20205;-80
2023/10/31 08:01:33;;;;;;;2.15;1.05;;;11.50;99.90;;;;;;4998750;28;20300;-82
2023/10/31 08:04:01;;;;;;;3.22;1.40;;;11.70;99.90;;;;;;4992318;28;20298;-82
2023/10/31 08:06:31;;;;;;;1.13;0.90;;;11.60;99.90;;;;;;5004246;28;20249;-80
2023/10/31 08:09:58;;;;;;;2.17;0.93;;;11.70;99.90;;;;;;4996960;28;20238;-81
2023/10/31 08:12:58;;;;;;;1.85;0.80;;;11.60;99.90;;;;;;5006071;28;20211;-80
2023/10/31 08:15:50;;;;;;;1.20;0.80;;;11.60;99.90;;;;;;5003281;28;20229;-82
2023/10/31 08:21:31;;;;;;;1.52;0.70;;;11.50;99.90;;;;;;5001059;28;20246;-84
2023/10/31 08:27:05;;;;;;;1.45;1.17;;;11.80;99.90;;;;;;4988725;28;20229;-83
2023/10/31 08:29:35;;;;;;;1.20;1.10;;;11.90;99.90;;;;;;5000715;28;20235;-86
2023/10/31 08:37:29;;;;;;;1.10;1.00;;;12.10;99.90;;;;;;4985256;28;20225;-74
2023/10/31 08:39:56;;;;;;;1.08;0.95;;;12.30;99.90;;;;;;4995549;28;20303;-78
2023/10/31 08:42:23;;;;;;;1.00;0.80;;;12.20;99.90;;;;;;4991706;28;20709;-78
2023/10/31 08:44:49;;;;;;;2.60;1.48;;;12.10;99.90;;;;;;4984883;28;20304;-76
2023/10/31 08:47:17;;;;;;;2.28;1.20;;;12.20;99.90;;;;;;4982993;28;20682;-77
2023/10/31 08:49:45;;;;;;;2.15;1.00;;;12.20;99.90;;;;;;4977578;28;20308;-74
2023/10/31 08:52:13;;;;;;;0.80;0.80;;;12.20;99.90;;;;;;4984054;28;20683;-73
2023/10/31 08:54:41;;;;;;;1.35;1.13;;;12.30;99.90;;;;;;4979220;28;20234;-72
2023/10/31 08:57:08;;;;;;;1.08;0.98;;;12.30;99.90;;;;;;4977530;28;20223;-77
2023/10/31 08:59:35;;;;;;;1.05;0.93;;;12.40;99.90;;;;;;4975597;28;20648;-74
2023/10/31 09:02:02;;;;;;;0.85;0.80;;;12.40;99.90;;;;;;4975889;28;20292;-71
2023/10/31 09:04:29;;;;;;;1.77;1.05;;;12.30;99.90;;;;;;4983459;28;20221;-75
2023/10/31 09:06:56;;;;;;;1.08;0.80;;;12.30;99.90;;;;;;4976548;28;20293;-73
2023/10/31 09:09:23;;;;;;;1.13;1.00;;;12.40;99.90;;;;;;4977703;28;20336;-75
2023/10/31 09:11:52;;;;;;;1.73;1.02;;;12.40;99.90;;;;;;4976466;28;20657;-71
2023/10/31 09:14:19;;;;;;;2.28;1.23;;;12.40;99.90;;;;;;4979434;28;20309;-74
2023/10/31 09:16:46;;;;;;;1.88;0.98;;;12.50;99.90;;;;;;4976777;28;20260;-77
2023/10/31 09:19:13;;;;;;;1.73;1.40;;;12.50;99.90;;;;;;4981670;28;20206;-76
2023/10/31 09:21:40;;;;;;;1.70;1.60;;;12.40;99.90;;;;;;4976165;28;20313;-74
2023/10/31 09:24:09;;;;;;;1.63;1.13;;;12.40;99.90;;;;;;4979460;28;20355;-74
2023/10/31 09:26:37;;;;;;;2.58;1.50;;;12.40;99.90;;;;;;4975571;28;20285;-74
2023/10/31 09:29:05;;;;;;;1.60;1.50;;;12.40;99.90;;;;;;4980095;28;20214;-73
2023/10/31 09:31:32;;;;;;;2.80;1.60;;;12.40;99.90;;;;;;4978066;28;20244;-76
2023/10/31 09:34:00;;;;;;;4.43;1.65;;;12.20;99.90;;;;;;4987121;28;20308;-77
2023/10/31 09:36:28;;;;;;;1.73;1.15;;;12.10;99.90;;;;;;4988386;28;20271;-79
2023/10/31 09:38:55;;;;;;;1.65;1.55;;;12.20;99.90;;;;;;4976561;28;20291;-75
2023/10/31 09:41:22;;;;;;;1.70;1.40;;;12.20;99.90;;;;;;4983432;28;20727;-75
2023/10/31 09:43:50;;;;;;;3.70;1.75;;;12.30;99.90;;;;;;4988452;28;20303;-75
2023/10/31 09:46:19;;;;;;;2.28;1.90;;;12.40;99.90;;;;;;4975607;28;20204;-73
2023/10/31 09:48:46;;;;;;;2.65;2.45;;;12.40;99.90;;;;;;4983018;28;20268;-76
2023/10/31 09:51:13;;;;;;;1.83;1.55;;;12.50;99.90;;;;;;4978644;28;20206;-74
2023/10/31 09:53:42;;;;;;;5.43;2.80;;;12.60;99.90;;;;;;4979777;28;20221;-73
2023/10/31 09:56:11;;;;;;;5.60;1.83;;;12.60;99.90;;;;;;4980196;28;20205;-74
2023/10/31 09:58:39;;;;;;;1.80;1.40;;;12.60;99.90;;;;;;4985940;28;20209;-75
2023/10/31 10:01:06;;;;;;;2.47;2.10;;;12.70;99.90;;;;;;4981003;28;20198;-74
2023/10/31 10:03:34;;;;;;;3.17;2.50;;;12.70;99.90;;;;;;4978396;28;20288;-80
2023/10/31 10:06:04;;;;;;;2.65;1.83;;;12.80;99.90;;;;;;4979205;28;20233;-77
2023/10/31 10:08:31;;;;;;;2.42;2.05;;;12.80;99.90;;;;;;4990324;28;20205;-76
2023/10/31 10:10:59;;;;;;;3.83;2.53;;;12.90;99.90;;;;;;4982153;28;20233;-75
2023/10/31 10:13:33;;;;;;;9.02;2.80;;;12.80;99.90;;;;;;4990268;28;20726;-72
2023/10/31 10:16:01;;;;;;;4.38;3.28;;;12.80;99.90;;;;;;4975751;28;20202;-72
2023/10/31 10:18:29;;;;;;;4.00;3.40;;;12.70;99.90;;;;;;4980743;28;20206;-75
2023/10/31 10:20:58;;;;;;;6.82;5.82;;;12.70;99.90;;;;;;4973402;28;20293;-73
2023/10/31 10:23:26;;;;;;;3.92;3.63;;;12.80;99.90;;;;;;4983214;28;20305;-75
2023/10/31 10:25:54;;;;;;;6.75;4.18;;;12.90;99.90;;;;;;4978640;28;20208;-74
2023/10/31 10:28:21;;;;;;;8.57;4.13;;;12.90;99.90;;;;;;4983095;28;20284;-74
2023/10/31 10:30:49;;;;;;;3.15;2.85;;;13.10;99.90;;;;;;4974262;28;20317;-77
2023/10/31 10:33:17;;;;;;;3.20;2.90;;;13.10;99.90;;;;;;4979456;28;20226;-75
2023/10/31 10:35:46;;;;;;;4.32;3.50;;;13.40;99.90;;;;;;4981464;28;20206;-73
2023/10/31 10:38:16;;;;;;;3.70;2.97;;;13.40;99.90;;;;;;4976936;28;20660;-77
2023/10/31 10:40:44;;;;;;;6.75;3.35;;;13.60;99.90;;;;;;4974626;28;20364;-74
2023/10/31 10:43:14;;;;;;;3.80;3.00;;;13.60;99.90;;;;;;4978621;28;20295;-75
2023/10/31 10:45:44;;;;;;;3.35;2.45;;;13.80;99.90;;;;;;4982999;28;20199;-76
2023/10/31 10:48:14;;;;;;;3.35;2.65;;;13.90;99.90;;;;;;4973574;28;20566;-75
2023/10/31 10:50:46;;;;;;;3.13;2.70;;;14.00;99.90;;;;;;4973101;28;20214;-74
2023/10/31 10:53:25;;;;;;;2.85;2.25;;;14.00;99.90;;;;;;4975690;28;20318;-74
2023/10/31 10:55:56;;;;;;;4.57;3.97;;;14.10;99.90;;;;;;4981492;28;20206;-79
2023/10/31 10:58:28;;;;;;;4.20;2.70;;;14.00;99.90;;;;;;4982448;28;20214;-75
2023/10/31 11:00:58;;;;;;;2.30;2.20;;;14.00;99.90;;;;;;4972832;28;20210;-76
2023/10/31 11:03:27;;;;;;;2.75;2.05;;;14.00;99.90;;;;;;4983874;28;20238;-75
2023/10/31 11:05:55;;;;;;;2.85;2.00;;;13.80;99.90;;;;;;4985192;28;20207;-72
2023/10/31 11:08:25;;;;;;;2.85;2.65;;;13.80;99.90;;;;;;4979813;28;20202;-74
2023/10/31 11:10:56;;;;;;;9.90;2.92;;;13.60;99.90;;;;;;4987307;28;20678;-72
2023/10/31 11:13:24;;;;;;;2.70;2.50;;;13.50;99.90;;;;;;4979433;28;20228;-73
2023/10/31 11:15:56;;;;;;;2.83;2.35;;;13.30;99.90;;;;;;4977693;28;20202;-75
2023/10/31 11:18:24;;;;;;;3.38;2.60;;;13.30;99.90;;;;;;4988138;28;20233;-77
2023/10/31 11:20:51;;;;;;;3.03;2.70;;;13.30;99.90;;;;;;4978723;28;20203;-74
2023/10/31 11:23:18;;;;;;;8.07;3.05;;;13.20;99.90;;;;;;4981960;28;20305;-74
2023/10/31 11:25:52;;;;;;;4.90;4.15;;;13.20;99.90;;;;;;4988910;28;20199;-74
2023/10/31 11:28:19;;;;;;;3.13;2.83;;;13.10;99.90;;;;;;4993569;28;20296;-75
2023/10/31 11:30:48;;;;;;;3.15;2.85;;;13.00;99.90;;;;;;4989630;28;20316;-76
2023/10/31 11:33:17;;;;;;;6.80;3.42;;;13.00;99.90;;;;;;4982372;28;20235;-73
2023/10/31 11:35:45;;;;;;;2.53;2.28;;;13.00;99.90;;;;;;4982118;28;20270;-73
2023/10/31 11:38:12;;;;;;;8.10;2.83;;;13.00;99.90;;;;;;4978535;28;20546;-75
2023/10/31 11:41:01;;;;;;;4.20;3.08;;;13.20;99.90;;;;;;4978367;28;20206;-75
2023/10/31 11:43:37;;;;;;;2.83;2.42;;;13.40;99.90;;;;;;4985043;28;20304;-74
2023/10/31 11:46:04;;;;;;;4.05;3.55;;;13.40;99.90;;;;;;4988525;28;20236;-75
2023/10/31 11:48:46;;;;;;;2.25;2.05;;;13.50;99.90;;;;;;4995539;28;20280;-73
2023/10/31 11:51:14;;;;;;;3.60;3.17;;;13.50;99.90;;;;;;4981973;28;20218;-73
2023/10/31 11:53:43;;;;;;;5.88;2.63;;;13.50;99.90;;;;;;4983845;28;20226;-74
2023/10/31 11:56:12;;;;;;;5.13;3.45;;;13.40;99.90;;;;;;4983536;28;20206;-71
2023/10/31 11:58:39;;;;;;;7.25;3.78;;;13.40;99.90;;;;;;4978417;28;20286;-74
2023/10/31 12:01:08;;;;;;;4.57;2.58;;;13.40;99.90;;;;;;4993149;28;20193;-74
2023/10/31 12:03:39;;;;;;;3.75;3.38;;;13.40;99.90;;;;;;4983865;28;20257;-74
2023/10/31 12:06:07;;;;;;;6.78;3.70;;;13.40;99.90;;;;;;4981172;28;20284;-74
2023/10/31 12:08:36;;;;;;;5.28;4.35;;;13.30;99.90;;;;;;4980264;28;20285;-73
2023/10/31 12:11:08;;;;;;;11.00;4.32;;;13.30;99.90;;;;;;4992796;28;20225;-74
2023/10/31 12:13:38;;;;;;;5.30;3.90;;;13.20;99.90;;;;;;4979059;28;20226;-75
2023/10/31 12:16:06;;;;;;;4.35;3.53;;;13.10;99.90;;;;;;4991754;28;20198;-72
2023/10/31 12:18:34;;;;;;;7.95;3.80;;;13.20;99.90;;;;;;4975383;28;20553;-76
2023/10/31 12:21:01;;;;;;;7.45;5.13;;;13.20;99.90;;;;;;4986781;28;20252;-75
2023/10/31 12:23:29;;;;;;;3.90;3.50;;;13.20;99.90;;;;;;4982840;28;20772;-76
2023/10/31 12:25:57;;;;;;;4.82;3.97;;;13.30;99.90;;;;;;4989893;28;20682;-75
2023/10/31 12:28:26;;;;;;;6.00;4.63;;;13.40;99.90;;;;;;4987726;28;20710;-75
2023/10/31 12:30:55;;;;;;;6.68;4.95;;;13.40;99.90;;;;;;4990026;28;20256;-74
2023/10/31 12:33:24;;;;;;;5.55;3.58;;;13.40;99.90;;;;;;4981198;28;20254;-76
2023/10/31 12:35:53;;;;;;;8.93;5.03;;;13.30;99.90;;;;;;4975835;28;20218;-76
2023/10/31 12:38:20;;;;;;;5.57;4.45;;;13.30;99.90;;;;;;4977061;28;20289;-75
2023/10/31 12:40:48;;;;;;;6.60;4.00;;;13.30;99.90;;;;;;4983443;28;20206;-75
2023/10/31 12:43:17;;;;;;;5.15;2.20;;;13.30;99.90;;;;;;4988617;28;20230;-73
2023/10/31 12:45:44;;;;;;;3.88;1.88;;;13.20;99.90;;;;;;4995110;28;20205;-74
2023/10/31 12:48:12;;;;;;;3.70;1.85;;;13.30;99.90;;;;;;4979764;28;20206;-73
2023/10/31 12:50:40;;;;;;;2.35;0.90;;;13.30;99.90;;;;;;4979985;28;20226;-76
2023/10/31 12:53:07;;;;;;;4.60;1.65;;;13.30;99.90;;;;;;4987600;28;20284;-74
2023/10/31 12:55:40;;;;;;;3.65;1.10;;;13.30;99.90;;;;;;4978125;28;20214;-75